This is the latest recevied weather packets stored in our database for station/object WX5HOT. If no packets are shown the sender has not sent any weather packets the latest 10 day(s).
| Time | Temp. | Humidity | Pressure | Rain* | Wind** | Luminosity | Snow |
|---|---|---|---|---|---|---|---|
| 1777503948 | 15° C | 86% | 1064.2 hPa | 0 mm | - | 67 W/m² | - |
| 1777503644 | 15° C | 85% | 1064.2 hPa | 0 mm | - | 74 W/m² | - |
| 1777503341 | 15° C | 85% | 1064.2 hPa | 0 mm | - | 89 W/m² | - |
| 1777503037 | 15° C | 86% | 1064.2 hPa | 0 mm | - | 82 W/m² | - |
| 1777502735 | 15° C | 84% | 1064.3 hPa | 0 mm | - | 108 W/m² | - |
| 1777502432 | 15° C | 85% | 1064.4 hPa | 0 mm | - | 86 W/m² | - |
| 1777502128 | 15° C | 85% | 1064 hPa | 0 mm | - | 100 W/m² | - |
| 1777501827 | 15° C | 85% | 1064.3 hPa | 0 mm | - | 79 W/m² | - |
| 1777501523 | 15° C | 84% | 1064.2 hPa | 0 mm | - | 41 W/m² | - |
| 1777501220 | 15° C | 83% | 1064.1 hPa | 0 mm | - | 53 W/m² | - |
| 1777500918 | 15° C | 82% | 1063.7 hPa | 0 mm | - | 123 W/m² | - |
| 1777500615 | 15° C | 82% | 1063.9 hPa | 0 mm | - | 117 W/m² | - |
| 1777500312 | 15.56° C | 81% | 1063.5 hPa | 0 mm | - | 172 W/m² | - |
| 1777500008 | 15.56° C | 81% | 1063.6 hPa | 0 mm | - | 183 W/m² | - |
| 1777499704 | 15.56° C | 81% | 1064 hPa | 0 mm | - | 161 W/m² | - |
| 1777499401 | 15.56° C | 81% | 1063.9 hPa | 0 mm | - | 156 W/m² | - |
| 1777499100 | 15.56° C | 81% | 1063.9 hPa | 0 mm | - | 152 W/m² | - |
| 1777498796 | 15.56° C | 82% | 1064 hPa | 0 mm | - | 166 W/m² | - |
| 1777498492 | 15.56° C | 80% | 1064.1 hPa | 0 mm | - | 155 W/m² | - |
| 1777498189 | 15.56° C | 81% | 1064.5 hPa | 0 mm | - | 161 W/m² | - |
| 1777497887 | 15.56° C | 81% | 1064.2 hPa | 0 mm | - | 156 W/m² | - |
| 1777497582 | 15.56° C | 81% | 1064.1 hPa | 0 mm | - | 173 W/m² | - |
| 1777497279 | 15.56° C | 81% | 1064 hPa | 0 mm | - | 176 W/m² | - |
| 1777496975 | 15.56° C | 79% | 1064.1 hPa | 0 mm | - | 174 W/m² | - |
| 1777496673 | 15.56° C | 79% | 1064 hPa | 0 mm | - | 179 W/m² | - |
* Rain latest hour (hover to see other rain measurements)
** Current wind speed in m/s (hover to see current wind gust speed)